sensor_id;sensor_type;location;lat;lon;timestamp;P1;durP1;ratioP1;P2;durP2;ratioP2
15573;SDS011;7888;46.748;8.102;2022-08-04T00:11:04;1.88;;;1.77;;
15573;SDS011;7888;46.748;8.102;2022-08-04T00:13:38;2.05;;;1.95;;
15573;SDS011;7888;46.748;8.102;2022-08-04T00:16:13;2.33;;;1.77;;
15573;SDS011;7888;46.748;8.102;2022-08-04T00:18:45;3.40;;;1.85;;
15573;SDS011;7888;46.748;8.102;2022-08-04T00:21:23;1.77;;;1.67;;
15573;SDS011;7888;46.748;8.102;2022-08-04T00:23:53;1.88;;;1.77;;
15573;SDS011;7888;46.748;8.102;2022-08-04T00:26:20;1.80;;;1.70;;
15573;SDS011;7888;46.748;8.102;2022-08-04T00:28:47;1.80;;;1.63;;
15573;SDS011;7888;46.748;8.102;2022-08-04T00:31:14;1.90;;;1.73;;
15573;SDS011;7888;46.748;8.102;2022-08-04T00:33:44;1.95;;;1.85;;
15573;SDS011;7888;46.748;8.102;2022-08-04T00:36:11;2.70;;;1.90;;
15573;SDS011;7888;46.748;8.102;2022-08-04T00:38:41;1.92;;;1.75;;
15573;SDS011;7888;46.748;8.102;2022-08-04T00:50:08;2.58;;;1.70;;
15573;SDS011;7888;46.748;8.102;2022-08-04T00:58:48;1.67;;;1.58;;
15573;SDS011;7888;46.748;8.102;2022-08-04T01:04:24;2.00;;;1.80;;
15573;SDS011;7888;46.748;8.102;2022-08-04T01:07:30;2.00;;;1.70;;
15573;SDS011;7888;46.748;8.102;2022-08-04T01:13:35;1.50;;;1.33;;
15573;SDS011;7888;46.748;8.102;2022-08-04T01:16:51;2.17;;;1.70;;
15573;SDS011;7888;46.748;8.102;2022-08-04T01:30:13;2.03;;;1.70;;
15573;SDS011;7888;46.748;8.102;2022-08-04T01:32:44;2.15;;;1.95;;
15573;SDS011;7888;46.748;8.102;2022-08-04T01:40:59;1.90;;;1.80;;
15573;SDS011;7888;46.748;8.102;2022-08-04T01:43:33;3.88;;;1.50;;
15573;SDS011;7888;46.748;8.102;2022-08-04T01:46:05;2.08;;;1.50;;
15573;SDS011;7888;46.748;8.102;2022-08-04T01:48:36;2.25;;;1.80;;
15573;SDS011;7888;46.748;8.102;2022-08-04T01:51:05;2.08;;;1.50;;
15573;SDS011;7888;46.748;8.102;2022-08-04T01:53:35;2.42;;;1.70;;
15573;SDS011;7888;46.748;8.102;2022-08-04T01:56:06;5.65;;;1.90;;
15573;SDS011;7888;46.748;8.102;2022-08-04T01:58:36;1.90;;;1.58;;
15573;SDS011;7888;46.748;8.102;2022-08-04T02:01:10;1.83;;;1.58;;
15573;SDS011;7888;46.748;8.102;2022-08-04T02:03:42;1.70;;;1.60;;
15573;SDS011;7888;46.748;8.102;2022-08-04T02:12:03;1.83;;;1.60;;
15573;SDS011;7888;46.748;8.102;2022-08-04T02:14:43;1.70;;;1.60;;
15573;SDS011;7888;46.748;8.102;2022-08-04T02:17:31;2.42;;;1.70;;
15573;SDS011;7888;46.748;8.102;2022-08-04T02:20:24;2.15;;;1.50;;
15573;SDS011;7888;46.748;8.102;2022-08-04T02:23:07;2.10;;;1.60;;
15573;SDS011;7888;46.748;8.102;2022-08-04T02:25:39;1.85;;;1.60;;
15573;SDS011;7888;46.748;8.102;2022-08-04T02:28:24;3.20;;;1.73;;
15573;SDS011;7888;46.748;8.102;2022-08-04T02:31:32;1.50;;;1.40;;
15573;SDS011;7888;46.748;8.102;2022-08-04T02:37:02;2.33;;;1.60;;
15573;SDS011;7888;46.748;8.102;2022-08-04T02:39:32;2.00;;;1.70;;
15573;SDS011;7888;46.748;8.102;2022-08-04T02:42:01;1.70;;;1.60;;
15573;SDS011;7888;46.748;8.102;2022-08-04T02:44:29;1.95;;;1.70;;
15573;SDS011;7888;46.748;8.102;2022-08-04T02:46:57;1.80;;;1.45;;
15573;SDS011;7888;46.748;8.102;2022-08-04T02:49:26;1.60;;;1.50;;
15573;SDS011;7888;46.748;8.102;2022-08-04T02:51:55;2.40;;;1.98;;
15573;SDS011;7888;46.748;8.102;2022-08-04T02:54:24;1.63;;;1.52;;
15573;SDS011;7888;46.748;8.102;2022-08-04T02:56:56;1.73;;;1.63;;
15573;SDS011;7888;46.748;8.102;2022-08-04T02:59:25;1.90;;;1.70;;
15573;SDS011;7888;46.748;8.102;2022-08-04T03:01:54;1.77;;;1.50;;
15573;SDS011;7888;46.748;8.102;2022-08-04T03:10:17;2.63;;;1.60;;
15573;SDS011;7888;46.748;8.102;2022-08-04T03:16:34;1.60;;;1.50;;
15573;SDS011;7888;46.748;8.102;2022-08-04T03:22:17;2.60;;;1.50;;
15573;SDS011;7888;46.748;8.102;2022-08-04T04:04:28;2.10;;;1.90;;
15573;SDS011;7888;46.748;8.102;2022-08-04T04:13:42;1.60;;;1.50;;
15573;SDS011;7888;46.748;8.102;2022-08-04T04:19:35;1.60;;;1.50;;
15573;SDS011;7888;46.748;8.102;2022-08-04T04:35:42;1.88;;;1.75;;
15573;SDS011;7888;46.748;8.102;2022-08-04T04:38:44;2.13;;;1.70;;
15573;SDS011;7888;46.748;8.102;2022-08-04T04:44:41;2.47;;;1.58;;
15573;SDS011;7888;46.748;8.102;2022-08-04T04:47:46;2.75;;;1.63;;
15573;SDS011;7888;46.748;8.102;2022-08-04T04:50:19;2.55;;;1.67;;
15573;SDS011;7888;46.748;8.102;2022-08-04T04:53:03;2.80;;;1.60;;
15573;SDS011;7888;46.748;8.102;2022-08-04T04:55:47;1.73;;;1.63;;
15573;SDS011;7888;46.748;8.102;2022-08-04T04:58:24;1.70;;;1.48;;
15573;SDS011;7888;46.748;8.102;2022-08-04T05:10:06;1.75;;;1.65;;
15573;SDS011;7888;46.748;8.102;2022-08-04T05:16:14;4.53;;;1.90;;
15573;SDS011;7888;46.748;8.102;2022-08-04T05:18:51;1.77;;;1.67;;
15573;SDS011;7888;46.748;8.102;2022-08-04T05:21:49;1.80;;;1.70;;
15573;SDS011;7888;46.748;8.102;2022-08-04T05:24:24;1.85;;;1.70;;
15573;SDS011;7888;46.748;8.102;2022-08-04T05:26:55;2.42;;;1.90;;
15573;SDS011;7888;46.748;8.102;2022-08-04T05:32:07;4.13;;;1.73;;
15573;SDS011;7888;46.748;8.102;2022-08-04T05:34:44;2.42;;;1.77;;
15573;SDS011;7888;46.748;8.102;2022-08-04T05:37:27;2.30;;;1.90;;
15573;SDS011;7888;46.748;8.102;2022-08-04T05:39:58;4.43;;;2.03;;
15573;SDS011;7888;46.748;8.102;2022-08-04T05:42:30;1.95;;;1.85;;
15573;SDS011;7888;46.748;8.102;2022-08-04T05:45:01;2.08;;;1.63;;
15573;SDS011;7888;46.748;8.102;2022-08-04T05:47:30;2.80;;;1.58;;
15573;SDS011;7888;46.748;8.102;2022-08-04T05:49:59;1.73;;;1.63;;
15573;SDS011;7888;46.748;8.102;2022-08-04T05:52:28;4.03;;;1.90;;
15573;SDS011;7888;46.748;8.102;2022-08-04T05:54:55;3.00;;;1.88;;
15573;SDS011;7888;46.748;8.102;2022-08-04T05:57:23;2.22;;;1.90;;
15573;SDS011;7888;46.748;8.102;2022-08-04T05:59:50;3.58;;;2.10;;
15573;SDS011;7888;46.748;8.102;2022-08-04T06:02:19;3.58;;;1.63;;
15573;SDS011;7888;46.748;8.102;2022-08-04T06:04:48;1.67;;;1.58;;
15573;SDS011;7888;46.748;8.102;2022-08-04T06:07:15;2.10;;;1.80;;
15573;SDS011;7888;46.748;8.102;2022-08-04T06:09:42;1.67;;;1.58;;
15573;SDS011;7888;46.748;8.102;2022-08-04T06:12:16;1.83;;;1.73;;
15573;SDS011;7888;46.748;8.102;2022-08-04T06:14:47;2.05;;;1.52;;
15573;SDS011;7888;46.748;8.102;2022-08-04T06:17:23;2.10;;;1.90;;
15573;SDS011;7888;46.748;8.102;2022-08-04T06:20:04;1.60;;;1.50;;
15573;SDS011;7888;46.748;8.102;2022-08-04T06:22:51;2.00;;;1.88;;
15573;SDS011;7888;46.748;8.102;2022-08-04T06:25:23;2.30;;;1.85;;
15573;SDS011;7888;46.748;8.102;2022-08-04T06:27:55;1.80;;;1.58;;
15573;SDS011;7888;46.748;8.102;2022-08-04T06:30:24;2.00;;;1.88;;
15573;SDS011;7888;46.748;8.102;2022-08-04T06:32:52;2.63;;;1.70;;
15573;SDS011;7888;46.748;8.102;2022-08-04T06:35:24;2.30;;;2.10;;
15573;SDS011;7888;46.748;8.102;2022-08-04T06:37:53;2.03;;;1.90;;
15573;SDS011;7888;46.748;8.102;2022-08-04T06:40:21;2.15;;;1.90;;
15573;SDS011;7888;46.748;8.102;2022-08-04T06:42:49;2.28;;;2.00;;
15573;SDS011;7888;46.748;8.102;2022-08-04T06:45:17;2.55;;;2.35;;
15573;SDS011;7888;46.748;8.102;2022-08-04T06:47:45;3.03;;;1.90;;
15573;SDS011;7888;46.748;8.102;2022-08-04T06:50:13;2.20;;;2.00;;
15573;SDS011;7888;46.748;8.102;2022-08-04T06:52:39;2.53;;;2.30;;
15573;SDS011;7888;46.748;8.102;2022-08-04T06:55:08;1.75;;;1.65;;
15573;SDS011;7888;46.748;8.102;2022-08-04T06:57:34;2.63;;;1.85;;
15573;SDS011;7888;46.748;8.102;2022-08-04T07:02:40;2.35;;;2.15;;
15573;SDS011;7888;46.748;8.102;2022-08-04T07:05:12;2.20;;;2.00;;
15573;SDS011;7888;46.748;8.102;2022-08-04T07:07:39;2.13;;;1.95;;
15573;SDS011;7888;46.748;8.102;2022-08-04T07:10:06;1.88;;;1.75;;
15573;SDS011;7888;46.748;8.102;2022-08-04T07:12:33;1.90;;;1.80;;
15573;SDS011;7888;46.748;8.102;2022-08-04T07:15:00;2.30;;;2.10;;
15573;SDS011;7888;46.748;8.102;2022-08-04T07:17:31;2.65;;;2.05;;
15573;SDS011;7888;46.748;8.102;2022-08-04T07:19:59;2.00;;;1.90;;
15573;SDS011;7888;46.748;8.102;2022-08-04T07:22:27;1.95;;;1.70;;
15573;SDS011;7888;46.748;8.102;2022-08-04T07:24:56;2.35;;;2.10;;
15573;SDS011;7888;46.748;8.102;2022-08-04T07:27:24;1.70;;;1.60;;
15573;SDS011;7888;46.748;8.102;2022-08-04T07:29:51;2.00;;;1.80;;
15573;SDS011;7888;46.748;8.102;2022-08-04T07:32:21;1.88;;;1.77;;
15573;SDS011;7888;46.748;8.102;2022-08-04T07:34:48;2.28;;;2.08;;
15573;SDS011;7888;46.748;8.102;2022-08-04T07:37:15;2.10;;;1.90;;
15573;SDS011;7888;46.748;8.102;2022-08-04T07:39:42;2.08;;;1.95;;
15573;SDS011;7888;46.748;8.102;2022-08-04T07:42:08;1.73;;;1.60;;
15573;SDS011;7888;46.748;8.102;2022-08-04T07:44:34;1.90;;;1.80;;
15573;SDS011;7888;46.748;8.102;2022-08-04T07:47:02;4.88;;;2.33;;
15573;SDS011;7888;46.748;8.102;2022-08-04T07:49:31;3.28;;;2.22;;
15573;SDS011;7888;46.748;8.102;2022-08-04T08:22:02;2.08;;;1.88;;
15573;SDS011;7888;46.748;8.102;2022-08-04T08:24:30;1.88;;;1.73;;
15573;SDS011;7888;46.748;8.102;2022-08-04T08:27:00;2.28;;;1.70;;
15573;SDS011;7888;46.748;8.102;2022-08-04T08:29:32;1.88;;;1.70;;
15573;SDS011;7888;46.748;8.102;2022-08-04T08:31:59;2.88;;;1.85;;
15573;SDS011;7888;46.748;8.102;2022-08-04T08:34:27;1.90;;;1.60;;
15573;SDS011;7888;46.748;8.102;2022-08-04T08:37:00;5.50;;;1.80;;
15573;SDS011;7888;46.748;8.102;2022-08-04T08:43:04;1.90;;;1.80;;
15573;SDS011;7888;46.748;8.102;2022-08-04T09:00:47;2.25;;;2.00;;
15573;SDS011;7888;46.748;8.102;2022-08-04T09:10:24;2.03;;;1.75;;
15573;SDS011;7888;46.748;8.102;2022-08-04T09:13:22;2.05;;;1.85;;
15573;SDS011;7888;46.748;8.102;2022-08-04T09:15:59;2.90;;;1.80;;
15573;SDS011;7888;46.748;8.102;2022-08-04T09:25:07;1.95;;;1.85;;
15573;SDS011;7888;46.748;8.102;2022-08-04T09:27:53;1.85;;;1.75;;
15573;SDS011;7888;46.748;8.102;2022-08-04T09:30:48;2.63;;;1.80;;
15573;SDS011;7888;46.748;8.102;2022-08-04T09:39:41;1.75;;;1.65;;
15573;SDS011;7888;46.748;8.102;2022-08-04T09:45:52;2.22;;;2.05;;
15573;SDS011;7888;46.748;8.102;2022-08-04T09:48:47;8.68;;;1.95;;
15573;SDS011;7888;46.748;8.102;2022-08-04T09:54:11;2.35;;;1.80;;
15573;SDS011;7888;46.748;8.102;2022-08-04T09:59:26;2.25;;;2.00;;
15573;SDS011;7888;46.748;8.102;2022-08-04T10:02:05;1.75;;;1.65;;
15573;SDS011;7888;46.748;8.102;2022-08-04T10:04:35;2.35;;;1.83;;
15573;SDS011;7888;46.748;8.102;2022-08-04T10:07:18;1.80;;;1.70;;
15573;SDS011;7888;46.748;8.102;2022-08-04T10:17:24;1.90;;;1.80;;
15573;SDS011;7888;46.748;8.102;2022-08-04T10:26:10;3.17;;;1.80;;
15573;SDS011;7888;46.748;8.102;2022-08-04T10:32:40;1.70;;;1.60;;
15573;SDS011;7888;46.748;8.102;2022-08-04T10:51:41;1.60;;;1.50;;
15573;SDS011;7888;46.748;8.102;2022-08-04T10:57:21;1.73;;;1.50;;
15573;SDS011;7888;46.748;8.102;2022-08-04T11:07:50;1.50;;;1.40;;
15573;SDS011;7888;46.748;8.102;2022-08-04T11:10:29;1.80;;;1.60;;
15573;SDS011;7888;46.748;8.102;2022-08-04T11:13:13;1.33;;;1.23;;
15573;SDS011;7888;46.748;8.102;2022-08-04T11:15:45;1.60;;;1.50;;
15573;SDS011;7888;46.748;8.102;2022-08-04T11:18:27;1.77;;;1.52;;
15573;SDS011;7888;46.748;8.102;2022-08-04T11:21:11;3.80;;;1.85;;
15573;SDS011;7888;46.748;8.102;2022-08-04T11:23:47;1.80;;;1.70;;
15573;SDS011;7888;46.748;8.102;2022-08-04T11:26:36;1.67;;;1.58;;
15573;SDS011;7888;46.748;8.102;2022-08-04T11:32:16;2.13;;;1.73;;
15573;SDS011;7888;46.748;8.102;2022-08-04T11:34:49;1.92;;;1.70;;
15573;SDS011;7888;46.748;8.102;2022-08-04T11:40:22;1.88;;;1.60;;
15573;SDS011;7888;46.748;8.102;2022-08-04T11:42:58;2.35;;;2.10;;
15573;SDS011;7888;46.748;8.102;2022-08-04T11:45:46;1.70;;;1.60;;
15573;SDS011;7888;46.748;8.102;2022-08-04T11:48:36;2.03;;;1.83;;
15573;SDS011;7888;46.748;8.102;2022-08-04T11:51:26;1.65;;;1.55;;
15573;SDS011;7888;46.748;8.102;2022-08-04T11:53:55;2.05;;;1.60;;
15573;SDS011;7888;46.748;8.102;2022-08-04T11:56:21;2.58;;;1.40;;
15573;SDS011;7888;46.748;8.102;2022-08-04T11:58:47;6.05;;;1.67;;
15573;SDS011;7888;46.748;8.102;2022-08-04T12:07:31;2.00;;;1.90;;
15573;SDS011;7888;46.748;8.102;2022-08-04T12:10:53;1.45;;;1.42;;
15573;SDS011;7888;46.748;8.102;2022-08-04T12:16:44;1.70;;;1.60;;
15573;SDS011;7888;46.748;8.102;2022-08-04T12:22:20;1.42;;;1.33;;
15573;SDS011;7888;46.748;8.102;2022-08-04T12:25:00;1.40;;;1.30;;
15573;SDS011;7888;46.748;8.102;2022-08-04T12:27:32;1.77;;;1.27;;
15573;SDS011;7888;46.748;8.102;2022-08-04T12:30:17;1.42;;;1.33;;
15573;SDS011;7888;46.748;8.102;2022-08-04T12:36:22;1.13;;;1.08;;
15573;SDS011;7888;46.748;8.102;2022-08-04T12:38:38;1.30;;;1.25;;
15573;SDS011;7888;46.748;8.102;2022-08-04T12:41:38;1.05;;;1.05;;
15573;SDS011;7888;46.748;8.102;2022-08-04T12:44:32;1.23;;;1.23;;
15573;SDS011;7888;46.748;8.102;2022-08-04T12:47:02;1.38;;;1.27;;
15573;SDS011;7888;46.748;8.102;2022-08-04T12:49:33;1.50;;;1.35;;
15573;SDS011;7888;46.748;8.102;2022-08-04T12:52:05;1.92;;;1.30;;
15573;SDS011;7888;46.748;8.102;2022-08-04T12:54:34;1.33;;;1.20;;
15573;SDS011;7888;46.748;8.102;2022-08-04T12:57:06;1.45;;;1.30;;
15573;SDS011;7888;46.748;8.102;2022-08-04T12:59:38;1.50;;;1.38;;
15573;SDS011;7888;46.748;8.102;2022-08-04T13:02:52;1.58;;;1.40;;
15573;SDS011;7888;46.748;8.102;2022-08-04T13:05:02;1.30;;;1.20;;
15573;SDS011;7888;46.748;8.102;2022-08-04T13:07:35;1.30;;;1.20;;
15573;SDS011;7888;46.748;8.102;2022-08-04T13:10:11;1.38;;;1.27;;
15573;SDS011;7888;46.748;8.102;2022-08-04T13:12:40;1.52;;;1.10;;
15573;SDS011;7888;46.748;8.102;2022-08-04T13:15:25;2.95;;;1.10;;
15573;SDS011;7888;46.748;8.102;2022-08-04T13:20:36;1.10;;;1.10;;
15573;SDS011;7888;46.748;8.102;2022-08-04T13:23:08;4.03;;;1.50;;
15573;SDS011;7888;46.748;8.102;2022-08-04T13:25:41;1.33;;;1.23;;
15573;SDS011;7888;46.748;8.102;2022-08-04T13:28:14;1.42;;;1.33;;
15573;SDS011;7888;46.748;8.102;2022-08-04T13:30:47;1.10;;;1.10;;
15573;SDS011;7888;46.748;8.102;2022-08-04T13:33:42;2.55;;;1.20;;
15573;SDS011;7888;46.748;8.102;2022-08-04T13:36:12;1.25;;;1.15;;
15573;SDS011;7888;46.748;8.102;2022-08-04T13:38:45;1.33;;;1.23;;
15573;SDS011;7888;46.748;8.102;2022-08-04T13:41:22;1.75;;;1.10;;
15573;SDS011;7888;46.748;8.102;2022-08-04T13:43:56;1.42;;;1.30;;
15573;SDS011;7888;46.748;8.102;2022-08-04T13:46:32;1.30;;;1.20;;
15573;SDS011;7888;46.748;8.102;2022-08-04T13:49:22;1.30;;;1.15;;
15573;SDS011;7888;46.748;8.102;2022-08-04T13:51:50;1.63;;;1.20;;
15573;SDS011;7888;46.748;8.102;2022-08-04T13:54:23;1.90;;;1.20;;
15573;SDS011;7888;46.748;8.102;2022-08-04T13:56:52;1.15;;;1.08;;
15573;SDS011;7888;46.748;8.102;2022-08-04T13:59:25;1.10;;;1.10;;
15573;SDS011;7888;46.748;8.102;2022-08-04T14:02:02;1.25;;;1.13;;
15573;SDS011;7888;46.748;8.102;2022-08-04T14:04:33;4.22;;;1.40;;
15573;SDS011;7888;46.748;8.102;2022-08-04T14:07:14;1.70;;;1.60;;
15573;SDS011;7888;46.748;8.102;2022-08-04T14:09:42;1.25;;;1.23;;
15573;SDS011;7888;46.748;8.102;2022-08-04T14:12:09;2.38;;;1.30;;
15573;SDS011;7888;46.748;8.102;2022-08-04T14:14:48;1.45;;;1.30;;
15573;SDS011;7888;46.748;8.102;2022-08-04T14:17:26;1.30;;;1.20;;
15573;SDS011;7888;46.748;8.102;2022-08-04T14:19:55;1.40;;;1.30;;
15573;SDS011;7888;46.748;8.102;2022-08-04T14:30:24;1.50;;;1.10;;
15573;SDS011;7888;46.748;8.102;2022-08-04T14:35:30;1.10;;;1.10;;
15573;SDS011;7888;46.748;8.102;2022-08-04T14:38:02;1.45;;;1.20;;
15573;SDS011;7888;46.748;8.102;2022-08-04T14:40:30;1.35;;;1.20;;
15573;SDS011;7888;46.748;8.102;2022-08-04T14:42:59;3.10;;;1.20;;
15573;SDS011;7888;46.748;8.102;2022-08-04T14:45:26;1.35;;;1.23;;
15573;SDS011;7888;46.748;8.102;2022-08-04T14:47:57;1.40;;;1.00;;
15573;SDS011;7888;46.748;8.102;2022-08-04T14:50:34;1.00;;;1.00;;
15573;SDS011;7888;46.748;8.102;2022-08-04T14:53:04;1.40;;;1.30;;
15573;SDS011;7888;46.748;8.102;2022-08-04T14:55:34;1.95;;;1.23;;
15573;SDS011;7888;46.748;8.102;2022-08-04T14:58:02;1.48;;;1.27;;
15573;SDS011;7888;46.748;8.102;2022-08-04T15:00:31;1.48;;;1.10;;
15573;SDS011;7888;46.748;8.102;2022-08-04T15:03:03;1.50;;;1.15;;
15573;SDS011;7888;46.748;8.102;2022-08-04T15:05:33;1.50;;;1.30;;
15573;SDS011;7888;46.748;8.102;2022-08-04T15:08:03;2.33;;;1.05;;
15573;SDS011;7888;46.748;8.102;2022-08-04T15:10:29;1.38;;;1.27;;
15573;SDS011;7888;46.748;8.102;2022-08-04T15:12:56;1.23;;;1.20;;
15573;SDS011;7888;46.748;8.102;2022-08-04T15:15:23;1.33;;;1.20;;
15573;SDS011;7888;46.748;8.102;2022-08-04T15:17:50;1.25;;;1.15;;
15573;SDS011;7888;46.748;8.102;2022-08-04T15:20:17;1.17;;;1.17;;
15573;SDS011;7888;46.748;8.102;2022-08-04T15:22:44;2.45;;;1.33;;
15573;SDS011;7888;46.748;8.102;2022-08-04T15:25:10;1.25;;;1.20;;
15573;SDS011;7888;46.748;8.102;2022-08-04T15:27:36;0.90;;;0.90;;
15573;SDS011;7888;46.748;8.102;2022-08-04T15:30:11;2.22;;;1.27;;
15573;SDS011;7888;46.748;8.102;2022-08-04T15:32:46;2.38;;;1.15;;
15573;SDS011;7888;46.748;8.102;2022-08-04T15:35:18;1.27;;;1.10;;
15573;SDS011;7888;46.748;8.102;2022-08-04T15:40:36;1.20;;;1.00;;
15573;SDS011;7888;46.748;8.102;2022-08-04T15:45:53;2.05;;;1.10;;
15573;SDS011;7888;46.748;8.102;2022-08-04T15:48:26;1.10;;;1.10;;
15573;SDS011;7888;46.748;8.102;2022-08-04T15:53:24;1.10;;;1.10;;
15573;SDS011;7888;46.748;8.102;2022-08-04T15:55:52;1.30;;;1.20;;
15573;SDS011;7888;46.748;8.102;2022-08-04T15:58:19;1.33;;;1.20;;
15573;SDS011;7888;46.748;8.102;2022-08-04T16:21:59;1.40;;;1.30;;
15573;SDS011;7888;46.748;8.102;2022-08-04T16:24:39;1.63;;;1.33;;
15573;SDS011;7888;46.748;8.102;2022-08-04T16:27:07;1.20;;;1.10;;
15573;SDS011;7888;46.748;8.102;2022-08-04T16:32:13;1.40;;;1.30;;
15573;SDS011;7888;46.748;8.102;2022-08-04T16:34:48;1.30;;;1.15;;
15573;SDS011;7888;46.748;8.102;2022-08-04T16:37:36;1.60;;;1.30;;
15573;SDS011;7888;46.748;8.102;2022-08-04T16:40:24;1.40;;;1.30;;
15573;SDS011;7888;46.748;8.102;2022-08-04T16:43:01;1.20;;;1.20;;
15573;SDS011;7888;46.748;8.102;2022-08-04T16:45:53;1.40;;;1.30;;
15573;SDS011;7888;46.748;8.102;2022-08-04T16:50:59;1.48;;;1.20;;
15573;SDS011;7888;46.748;8.102;2022-08-04T16:53:36;1.27;;;1.20;;
15573;SDS011;7888;46.748;8.102;2022-08-04T16:56:04;1.05;;;1.05;;
15573;SDS011;7888;46.748;8.102;2022-08-04T16:58:32;3.08;;;1.50;;
15573;SDS011;7888;46.748;8.102;2022-08-04T17:01:07;1.15;;;1.15;;
15573;SDS011;7888;46.748;8.102;2022-08-04T17:03:36;1.80;;;1.30;;
15573;SDS011;7888;46.748;8.102;2022-08-04T17:06:09;23.05;;;1.50;;
15573;SDS011;7888;46.748;8.102;2022-08-04T17:08:41;1.33;;;1.13;;
15573;SDS011;7888;46.748;8.102;2022-08-04T17:11:13;1.60;;;1.50;;
15573;SDS011;7888;46.748;8.102;2022-08-04T17:13:41;1.63;;;1.40;;
15573;SDS011;7888;46.748;8.102;2022-08-04T17:16:11;1.10;;;1.00;;
15573;SDS011;7888;46.748;8.102;2022-08-04T17:18:42;1.35;;;1.20;;
15573;SDS011;7888;46.748;8.102;2022-08-04T17:23:58;3.40;;;1.40;;
15573;SDS011;7888;46.748;8.102;2022-08-04T17:26:35;1.63;;;1.27;;
15573;SDS011;7888;46.748;8.102;2022-08-04T17:29:03;2.10;;;1.42;;
15573;SDS011;7888;46.748;8.102;2022-08-04T17:31:30;1.40;;;1.30;;
15573;SDS011;7888;46.748;8.102;2022-08-04T17:33:59;2.35;;;1.30;;
15573;SDS011;7888;46.748;8.102;2022-08-04T17:36:34;1.98;;;1.10;;
15573;SDS011;7888;46.748;8.102;2022-08-04T17:39:09;1.40;;;1.30;;
15573;SDS011;7888;46.748;8.102;2022-08-04T17:41:39;1.08;;;1.08;;
15573;SDS011;7888;46.748;8.102;2022-08-04T17:44:05;1.30;;;1.20;;
15573;SDS011;7888;46.748;8.102;2022-08-04T17:46:35;2.03;;;1.20;;
15573;SDS011;7888;46.748;8.102;2022-08-04T17:54:34;1.00;;;1.00;;
15573;SDS011;7888;46.748;8.102;2022-08-04T17:57:12;1.45;;;0.90;;
15573;SDS011;7888;46.748;8.102;2022-08-04T17:59:44;1.23;;;1.13;;
15573;SDS011;7888;46.748;8.102;2022-08-04T18:02:12;1.35;;;1.17;;
15573;SDS011;7888;46.748;8.102;2022-08-04T18:07:13;1.45;;;1.35;;
15573;SDS011;7888;46.748;8.102;2022-08-04T18:12:22;2.00;;;1.20;;
15573;SDS011;7888;46.748;8.102;2022-08-04T18:15:00;1.60;;;1.50;;
15573;SDS011;7888;46.748;8.102;2022-08-04T18:20:07;1.20;;;1.10;;
15573;SDS011;7888;46.748;8.102;2022-08-04T18:22:39;0.93;;;0.93;;
15573;SDS011;7888;46.748;8.102;2022-08-04T18:25:09;1.02;;;1.02;;
15573;SDS011;7888;46.748;8.102;2022-08-04T18:27:50;1.27;;;1.17;;
15573;SDS011;7888;46.748;8.102;2022-08-04T18:30:18;1.23;;;1.13;;
15573;SDS011;7888;46.748;8.102;2022-08-04T18:32:46;1.38;;;1.27;;
15573;SDS011;7888;46.748;8.102;2022-08-04T18:35:13;1.20;;;1.10;;
15573;SDS011;7888;46.748;8.102;2022-08-04T18:37:39;1.90;;;1.42;;
15573;SDS011;7888;46.748;8.102;2022-08-04T18:40:06;2.00;;;1.60;;
15573;SDS011;7888;46.748;8.102;2022-08-04T18:42:34;1.58;;;1.48;;
15573;SDS011;7888;46.748;8.102;2022-08-04T18:45:01;1.88;;;1.45;;
15573;SDS011;7888;46.748;8.102;2022-08-04T18:47:28;1.55;;;1.45;;
15573;SDS011;7888;46.748;8.102;2022-08-04T18:49:54;1.42;;;1.33;;
15573;SDS011;7888;46.748;8.102;2022-08-04T18:52:21;1.42;;;1.33;;
15573;SDS011;7888;46.748;8.102;2022-08-04T18:54:47;2.53;;;1.35;;
15573;SDS011;7888;46.748;8.102;2022-08-04T18:57:19;2.95;;;1.60;;
15573;SDS011;7888;46.748;8.102;2022-08-04T18:59:48;1.98;;;1.42;;
15573;SDS011;7888;46.748;8.102;2022-08-04T19:02:14;1.42;;;1.33;;
15573;SDS011;7888;46.748;8.102;2022-08-04T19:04:41;1.60;;;1.23;;
15573;SDS011;7888;46.748;8.102;2022-08-04T19:07:08;1.33;;;1.25;;
15573;SDS011;7888;46.748;8.102;2022-08-04T19:09:37;2.22;;;1.27;;
15573;SDS011;7888;46.748;8.102;2022-08-04T19:12:04;1.30;;;1.20;;
15573;SDS011;7888;46.748;8.102;2022-08-04T19:14:30;1.50;;;1.33;;
15573;SDS011;7888;46.748;8.102;2022-08-04T19:16:56;3.08;;;1.30;;
15573;SDS011;7888;46.748;8.102;2022-08-04T19:19:22;2.53;;;1.33;;
15573;SDS011;7888;46.748;8.102;2022-08-04T19:21:48;1.00;;;1.00;;
15573;SDS011;7888;46.748;8.102;2022-08-04T19:24:14;1.23;;;1.13;;
15573;SDS011;7888;46.748;8.102;2022-08-04T19:26:41;1.90;;;1.50;;
15573;SDS011;7888;46.748;8.102;2022-08-04T19:29:07;1.83;;;1.35;;
15573;SDS011;7888;46.748;8.102;2022-08-04T19:31:33;4.65;;;1.30;;
15573;SDS011;7888;46.748;8.102;2022-08-04T19:34:00;1.48;;;1.17;;
15573;SDS011;7888;46.748;8.102;2022-08-04T19:36:26;1.50;;;1.40;;
15573;SDS011;7888;46.748;8.102;2022-08-04T19:38:55;2.22;;;1.30;;
15573;SDS011;7888;46.748;8.102;2022-08-04T19:41:22;1.67;;;1.20;;
15573;SDS011;7888;46.748;8.102;2022-08-04T19:43:48;1.63;;;1.50;;
15573;SDS011;7888;46.748;8.102;2022-08-04T19:46:14;1.98;;;1.38;;
15573;SDS011;7888;46.748;8.102;2022-08-04T19:48:41;1.98;;;1.23;;
15573;SDS011;7888;46.748;8.102;2022-08-04T19:51:08;1.83;;;1.40;;
15573;SDS011;7888;46.748;8.102;2022-08-04T19:53:34;1.55;;;1.45;;
15573;SDS011;7888;46.748;8.102;2022-08-04T19:56:00;1.48;;;1.23;;
15573;SDS011;7888;46.748;8.102;2022-08-04T19:58:26;3.20;;;1.52;;
15573;SDS011;7888;46.748;8.102;2022-08-04T20:00:52;3.97;;;1.70;;
15573;SDS011;7888;46.748;8.102;2022-08-04T20:03:19;1.60;;;1.40;;
15573;SDS011;7888;46.748;8.102;2022-08-04T20:05:45;1.63;;;1.50;;
15573;SDS011;7888;46.748;8.102;2022-08-04T20:08:11;2.13;;;1.50;;
15573;SDS011;7888;46.748;8.102;2022-08-04T20:10:37;2.75;;;1.33;;
15573;SDS011;7888;46.748;8.102;2022-08-04T20:13:04;1.50;;;1.38;;
15573;SDS011;7888;46.748;8.102;2022-08-04T20:15:30;1.48;;;1.38;;
15573;SDS011;7888;46.748;8.102;2022-08-04T20:17:56;1.45;;;1.35;;
15573;SDS011;7888;46.748;8.102;2022-08-04T20:20:22;1.30;;;1.20;;
15573;SDS011;7888;46.748;8.102;2022-08-04T20:22:48;1.58;;;1.20;;
15573;SDS011;7888;46.748;8.102;2022-08-04T20:25:14;1.40;;;1.30;;
15573;SDS011;7888;46.748;8.102;2022-08-04T20:27:41;1.40;;;1.30;;
15573;SDS011;7888;46.748;8.102;2022-08-04T20:30:08;1.35;;;1.27;;
15573;SDS011;7888;46.748;8.102;2022-08-04T20:32:34;1.52;;;1.42;;
15573;SDS011;7888;46.748;8.102;2022-08-04T20:35:00;1.40;;;1.30;;
15573;SDS011;7888;46.748;8.102;2022-08-04T20:37:27;4.30;;;1.50;;
15573;SDS011;7888;46.748;8.102;2022-08-04T20:39:53;1.65;;;1.33;;
15573;SDS011;7888;46.748;8.102;2022-08-04T20:42:22;3.42;;;1.30;;
15573;SDS011;7888;46.748;8.102;2022-08-04T20:44:53;2.42;;;1.20;;
15573;SDS011;7888;46.748;8.102;2022-08-04T20:47:19;1.40;;;1.15;;
15573;SDS011;7888;46.748;8.102;2022-08-04T20:49:45;1.58;;;1.20;;
15573;SDS011;7888;46.748;8.102;2022-08-04T20:52:11;1.40;;;1.30;;
15573;SDS011;7888;46.748;8.102;2022-08-04T20:54:37;1.50;;;1.40;;
15573;SDS011;7888;46.748;8.102;2022-08-04T20:57:05;1.65;;;1.40;;
15573;SDS011;7888;46.748;8.102;2022-08-04T20:59:32;2.22;;;1.38;;
15573;SDS011;7888;46.748;8.102;2022-08-04T21:01:59;1.50;;;1.40;;
15573;SDS011;7888;46.748;8.102;2022-08-04T21:04:30;1.83;;;1.58;;
15573;SDS011;7888;46.748;8.102;2022-08-04T21:07:00;1.52;;;1.42;;
15573;SDS011;7888;46.748;8.102;2022-08-04T21:09:35;1.83;;;1.20;;
15573;SDS011;7888;46.748;8.102;2022-08-04T21:12:07;1.38;;;1.17;;
15573;SDS011;7888;46.748;8.102;2022-08-04T21:14:35;1.70;;;1.60;;
15573;SDS011;7888;46.748;8.102;2022-08-04T21:17:01;1.65;;;1.55;;
15573;SDS011;7888;46.748;8.102;2022-08-04T21:19:27;2.45;;;1.50;;
15573;SDS011;7888;46.748;8.102;2022-08-04T21:21:55;1.70;;;1.40;;
15573;SDS011;7888;46.748;8.102;2022-08-04T21:24:24;1.38;;;1.27;;
15573;SDS011;7888;46.748;8.102;2022-08-04T21:26:50;3.17;;;1.38;;
15573;SDS011;7888;46.748;8.102;2022-08-04T21:29:19;2.38;;;1.45;;
15573;SDS011;7888;46.748;8.102;2022-08-04T21:31:45;1.50;;;1.40;;
15573;SDS011;7888;46.748;8.102;2022-08-04T21:34:11;1.27;;;1.27;;